sensor_id;sensor_type;location;lat;lon;timestamp;pressure;altitude;pressure_sealevel;temperature;humidity
6413;BME280;3239;48.714;9.472;2023-04-30T00:00:56;98656.16;;;12.00;100.00
6413;BME280;3239;48.714;9.472;2023-04-30T00:03:21;98655.50;;;11.94;100.00
6413;BME280;3239;48.714;9.472;2023-04-30T00:05:52;98659.44;;;11.98;100.00
6413;BME280;3239;48.714;9.472;2023-04-30T00:08:18;98652.78;;;11.94;100.00
6413;BME280;3239;48.714;9.472;2023-04-30T00:10:43;98656.03;;;11.92;100.00
6413;BME280;3239;48.714;9.472;2023-04-30T00:13:09;98655.81;;;11.90;100.00
6413;BME280;3239;48.714;9.472;2023-04-30T00:15:35;98663.59;;;11.86;100.00
6413;BME280;3239;48.714;9.472;2023-04-30T00:18:01;98655.59;;;11.88;100.00
6413;BME280;3239;48.714;9.472;2023-04-30T00:20:27;98647.03;;;11.92;100.00
6413;BME280;3239;48.714;9.472;2023-04-30T00:22:53;98654.31;;;11.89;100.00
6413;BME280;3239;48.714;9.472;2023-04-30T00:25:19;98662.66;;;11.84;100.00
6413;BME280;3239;48.714;9.472;2023-04-30T00:27:45;98658.84;;;11.87;100.00
6413;BME280;3239;48.714;9.472;2023-04-30T00:30:11;98653.22;;;11.79;100.00
6413;BME280;3239;48.714;9.472;2023-04-30T00:32:37;98654.91;;;11.82;100.00
6413;BME280;3239;48.714;9.472;2023-04-30T00:35:03;98648.91;;;11.84;100.00
6413;BME280;3239;48.714;9.472;2023-04-30T00:37:29;98642.31;;;11.74;100.00
6413;BME280;3239;48.714;9.472;2023-04-30T00:39:55;98639.56;;;11.74;100.00
6413;BME280;3239;48.714;9.472;2023-04-30T00:42:21;98635.88;;;11.71;100.00
6413;BME280;3239;48.714;9.472;2023-04-30T00:44:46;98631.94;;;11.67;100.00
6413;BME280;3239;48.714;9.472;2023-04-30T00:47:12;98633.47;;;11.62;100.00
6413;BME280;3239;48.714;9.472;2023-04-30T00:49:38;98640.31;;;11.56;100.00
6413;BME280;3239;48.714;9.472;2023-04-30T00:52:04;98649.94;;;11.62;100.00
6413;BME280;3239;48.714;9.472;2023-04-30T00:54:30;98648.41;;;11.67;100.00
6413;BME280;3239;48.714;9.472;2023-04-30T00:56:57;98644.91;;;11.66;100.00
6413;BME280;3239;48.714;9.472;2023-04-30T00:59:23;98649.94;;;11.62;100.00
6413;BME280;3239;48.714;9.472;2023-04-30T01:01:49;98647.56;;;11.53;100.00
6413;BME280;3239;48.714;9.472;2023-04-30T01:04:15;98644.28;;;11.55;100.00
6413;BME280;3239;48.714;9.472;2023-04-30T01:06:41;98641.63;;;11.49;100.00
6413;BME280;3239;48.714;9.472;2023-04-30T01:09:08;98649.34;;;11.51;100.00
6413;BME280;3239;48.714;9.472;2023-04-30T01:15:00;98652.91;;;11.46;100.00
6413;BME280;3239;48.714;9.472;2023-04-30T01:18:06;98653.63;;;11.46;100.00
6413;BME280;3239;48.714;9.472;2023-04-30T01:20:31;98651.38;;;11.45;100.00
6413;BME280;3239;48.714;9.472;2023-04-30T01:23:24;98657.41;;;11.43;100.00
6413;BME280;3239;48.714;9.472;2023-04-30T01:29:02;98660.44;;;11.40;100.00
6413;BME280;3239;48.714;9.472;2023-04-30T01:31:28;98661.03;;;11.33;100.00
6413;BME280;3239;48.714;9.472;2023-04-30T01:33:54;98660.22;;;11.38;100.00
6413;BME280;3239;48.714;9.472;2023-04-30T01:36:52;98657.25;;;11.36;100.00
6413;BME280;3239;48.714;9.472;2023-04-30T01:39:49;98658.75;;;11.37;100.00
6413;BME280;3239;48.714;9.472;2023-04-30T01:42:24;98653.53;;;11.33;100.00
6413;BME280;3239;48.714;9.472;2023-04-30T01:47:40;98662.06;;;11.30;100.00
6413;BME280;3239;48.714;9.472;2023-04-30T01:50:47;98650.94;;;11.22;100.00
6413;BME280;3239;48.714;9.472;2023-04-30T01:53:32;98646.19;;;11.23;100.00
6413;BME280;3239;48.714;9.472;2023-04-30T01:56:04;98641.50;;;11.18;100.00
6413;BME280;3239;48.714;9.472;2023-04-30T01:58:31;98641.00;;;11.19;100.00
6413;BME280;3239;48.714;9.472;2023-04-30T02:00:58;98642.25;;;11.18;100.00
6413;BME280;3239;48.714;9.472;2023-04-30T02:03:24;98655.50;;;11.14;100.00
6413;BME280;3239;48.714;9.472;2023-04-30T02:05:49;98659.00;;;11.15;100.00
6413;BME280;3239;48.714;9.472;2023-04-30T02:08:15;98660.25;;;11.14;100.00
6413;BME280;3239;48.714;9.472;2023-04-30T02:10:41;98670.47;;;11.13;100.00
6413;BME280;3239;48.714;9.472;2023-04-30T02:13:07;98670.03;;;11.09;100.00
6413;BME280;3239;48.714;9.472;2023-04-30T02:15:32;98665.22;;;11.15;100.00
6413;BME280;3239;48.714;9.472;2023-04-30T02:17:58;98671.22;;;11.14;100.00
6413;BME280;3239;48.714;9.472;2023-04-30T02:20:24;98675.75;;;11.11;100.00
6413;BME280;3239;48.714;9.472;2023-04-30T02:22:50;98664.53;;;11.09;100.00
6413;BME280;3239;48.714;9.472;2023-04-30T02:25:16;98668.75;;;11.10;100.00
6413;BME280;3239;48.714;9.472;2023-04-30T02:27:41;98673.06;;;11.06;100.00
6413;BME280;3239;48.714;9.472;2023-04-30T02:30:07;98661.13;;;11.03;100.00
6413;BME280;3239;48.714;9.472;2023-04-30T02:32:33;98670.91;;;10.99;100.00
6413;BME280;3239;48.714;9.472;2023-04-30T02:34:59;98676.81;;;11.03;100.00
6413;BME280;3239;48.714;9.472;2023-04-30T02:37:25;98681.41;;;10.95;100.00
6413;BME280;3239;48.714;9.472;2023-04-30T02:39:52;98681.78;;;10.80;100.00
6413;BME280;3239;48.714;9.472;2023-04-30T02:42:18;98684.88;;;10.71;100.00
6413;BME280;3239;48.714;9.472;2023-04-30T02:44:44;98692.75;;;10.80;100.00
6413;BME280;3239;48.714;9.472;2023-04-30T02:47:10;98693.19;;;10.84;100.00
6413;BME280;3239;48.714;9.472;2023-04-30T02:49:35;98694.97;;;10.82;100.00
6413;BME280;3239;48.714;9.472;2023-04-30T02:52:01;98698.28;;;10.75;100.00
6413;BME280;3239;48.714;9.472;2023-04-30T02:54:27;98696.03;;;10.73;100.00
6413;BME280;3239;48.714;9.472;2023-04-30T02:56:53;98689.59;;;10.71;100.00
6413;BME280;3239;48.714;9.472;2023-04-30T02:59:18;98695.13;;;10.65;100.00
6413;BME280;3239;48.714;9.472;2023-04-30T03:01:44;98695.34;;;10.67;100.00
6413;BME280;3239;48.714;9.472;2023-04-30T03:04:10;98697.88;;;10.65;100.00
6413;BME280;3239;48.714;9.472;2023-04-30T03:06:36;98694.38;;;10.65;100.00
6413;BME280;3239;48.714;9.472;2023-04-30T03:09:01;98691.88;;;10.67;100.00
6413;BME280;3239;48.714;9.472;2023-04-30T03:11:27;98688.16;;;10.64;100.00
6413;BME280;3239;48.714;9.472;2023-04-30T03:13:53;98686.41;;;10.67;100.00
6413;BME280;3239;48.714;9.472;2023-04-30T03:16:20;98682.22;;;10.60;100.00
6413;BME280;3239;48.714;9.472;2023-04-30T03:18:47;98687.00;;;10.54;100.00
6413;BME280;3239;48.714;9.472;2023-04-30T03:21:13;98681.81;;;10.51;100.00
6413;BME280;3239;48.714;9.472;2023-04-30T03:23:38;98691.59;;;10.41;100.00
6413;BME280;3239;48.714;9.472;2023-04-30T03:26:04;98689.31;;;10.45;100.00
6413;BME280;3239;48.714;9.472;2023-04-30T03:28:30;98683.31;;;10.46;100.00
6413;BME280;3239;48.714;9.472;2023-04-30T03:30:56;98675.88;;;10.47;100.00
6413;BME280;3239;48.714;9.472;2023-04-30T03:33:23;98683.38;;;10.41;100.00
6413;BME280;3239;48.714;9.472;2023-04-30T03:35:49;98683.41;;;10.35;100.00
6413;BME280;3239;48.714;9.472;2023-04-30T03:38:16;98686.41;;;10.37;100.00
6413;BME280;3239;48.714;9.472;2023-04-30T03:40:42;98678.50;;;10.28;100.00
6413;BME280;3239;48.714;9.472;2023-04-30T03:43:08;98688.41;;;10.37;100.00
6413;BME280;3239;48.714;9.472;2023-04-30T03:45:33;98679.50;;;10.25;100.00
6413;BME280;3239;48.714;9.472;2023-04-30T03:47:59;98681.78;;;10.21;100.00
6413;BME280;3239;48.714;9.472;2023-04-30T03:50:25;98680.19;;;10.31;100.00
6413;BME280;3239;48.714;9.472;2023-04-30T03:52:51;98682.59;;;10.11;100.00
6413;BME280;3239;48.714;9.472;2023-04-30T03:55:17;98681.66;;;10.03;100.00
6413;BME280;3239;48.714;9.472;2023-04-30T03:57:43;98685.66;;;9.96;100.00
6413;BME280;3239;48.714;9.472;2023-04-30T04:00:10;98690.66;;;9.92;100.00
6413;BME280;3239;48.714;9.472;2023-04-30T04:02:38;98691.69;;;9.84;100.00
6413;BME280;3239;48.714;9.472;2023-04-30T04:05:04;98695.69;;;9.83;100.00
6413;BME280;3239;48.714;9.472;2023-04-30T04:07:30;98699.44;;;9.80;100.00
6413;BME280;3239;48.714;9.472;2023-04-30T04:09:56;98712.63;;;9.76;100.00
6413;BME280;3239;48.714;9.472;2023-04-30T04:12:21;98724.09;;;9.74;100.00
6413;BME280;3239;48.714;9.472;2023-04-30T04:14:48;98727.56;;;9.80;100.00
6413;BME280;3239;48.714;9.472;2023-04-30T04:17:13;98735.28;;;9.71;100.00
6413;BME280;3239;48.714;9.472;2023-04-30T04:19:39;98733.78;;;9.75;100.00
6413;BME280;3239;48.714;9.472;2023-04-30T04:22:05;98735.50;;;9.78;100.00
6413;BME280;3239;48.714;9.472;2023-04-30T04:24:32;98731.53;;;9.79;100.00
6413;BME280;3239;48.714;9.472;2023-04-30T04:26:58;98733.53;;;9.79;100.00
6413;BME280;3239;48.714;9.472;2023-04-30T04:29:24;98734.22;;;9.85;100.00
6413;BME280;3239;48.714;9.472;2023-04-30T04:31:50;98741.44;;;9.88;100.00
6413;BME280;3239;48.714;9.472;2023-04-30T04:34:16;98740.91;;;9.89;100.00
6413;BME280;3239;48.714;9.472;2023-04-30T04:36:42;98736.69;;;9.88;100.00
6413;BME280;3239;48.714;9.472;2023-04-30T04:39:08;98750.16;;;9.86;100.00
6413;BME280;3239;48.714;9.472;2023-04-30T04:41:34;98745.22;;;9.79;100.00
6413;BME280;3239;48.714;9.472;2023-04-30T04:44:00;98736.69;;;9.88;100.00
6413;BME280;3239;48.714;9.472;2023-04-30T04:46:30;98741.13;;;9.97;100.00
6413;BME280;3239;48.714;9.472;2023-04-30T04:48:57;98742.38;;;9.96;100.00
6413;BME280;3239;48.714;9.472;2023-04-30T04:51:23;98740.91;;;9.95;100.00
6413;BME280;3239;48.714;9.472;2023-04-30T04:53:49;98749.81;;;10.01;100.00
6413;BME280;3239;48.714;9.472;2023-04-30T04:56:15;98743.81;;;10.13;100.00
6413;BME280;3239;48.714;9.472;2023-04-30T04:58:43;98751.75;;;10.22;100.00
6413;BME280;3239;48.714;9.472;2023-04-30T05:01:09;98743.44;;;10.33;100.00
6413;BME280;3239;48.714;9.472;2023-04-30T05:03:35;98743.66;;;10.41;100.00
6413;BME280;3239;48.714;9.472;2023-04-30T05:06:04;98724.22;;;10.39;100.00
6413;BME280;3239;48.714;9.472;2023-04-30T05:08:30;98719.44;;;10.45;100.00
6413;BME280;3239;48.714;9.472;2023-04-30T05:10:56;98730.41;;;10.45;100.00
6413;BME280;3239;48.714;9.472;2023-04-30T05:13:22;98726.75;;;10.37;100.00
6413;BME280;3239;48.714;9.472;2023-04-30T05:15:52;98730.75;;;10.65;100.00
6413;BME280;3239;48.714;9.472;2023-04-30T05:18:19;98725.00;;;10.69;100.00
6413;BME280;3239;48.714;9.472;2023-04-30T05:20:45;98728.25;;;10.67;100.00
6413;BME280;3239;48.714;9.472;2023-04-30T05:23:11;98732.94;;;10.72;100.00
6413;BME280;3239;48.714;9.472;2023-04-30T05:25:37;98725.72;;;10.99;100.00
6413;BME280;3239;48.714;9.472;2023-04-30T05:28:03;98715.94;;;11.03;100.00
6413;BME280;3239;48.714;9.472;2023-04-30T05:30:29;98704.88;;;11.14;100.00
6413;BME280;3239;48.714;9.472;2023-04-30T05:32:56;98696.06;;;11.21;100.00
6413;BME280;3239;48.714;9.472;2023-04-30T05:35:22;98687.78;;;11.27;100.00
6413;BME280;3239;48.714;9.472;2023-04-30T05:37:48;98680.91;;;11.39;100.00
6413;BME280;3239;48.714;9.472;2023-04-30T05:40:14;98669.88;;;11.44;100.00
6413;BME280;3239;48.714;9.472;2023-04-30T05:42:41;98661.69;;;11.63;100.00
6413;BME280;3239;48.714;9.472;2023-04-30T05:45:09;98652.81;;;11.51;100.00
6413;BME280;3239;48.714;9.472;2023-04-30T05:47:36;98653.88;;;11.48;100.00
6413;BME280;3239;48.714;9.472;2023-04-30T05:50:02;98652.81;;;11.51;100.00
6413;BME280;3239;48.714;9.472;2023-04-30T05:52:28;98646.84;;;11.71;100.00
6413;BME280;3239;48.714;9.472;2023-04-30T05:54:54;98651.66;;;11.65;100.00
6413;BME280;3239;48.714;9.472;2023-04-30T05:57:20;98625.03;;;11.79;100.00
6413;BME280;3239;48.714;9.472;2023-04-30T05:59:46;98624.28;;;11.78;100.00
6413;BME280;3239;48.714;9.472;2023-04-30T06:02:12;98628.91;;;12.02;100.00
6413;BME280;3239;48.714;9.472;2023-04-30T06:04:38;98628.56;;;12.24;100.00
6413;BME280;3239;48.714;9.472;2023-04-30T06:07:03;98617.25;;;12.46;100.00
6413;BME280;3239;48.714;9.472;2023-04-30T06:09:29;98607.28;;;12.56;100.00
6413;BME280;3239;48.714;9.472;2023-04-30T06:11:55;98608.72;;;12.75;100.00
6413;BME280;3239;48.714;9.472;2023-04-30T06:14:21;98603.22;;;13.14;100.00
6413;BME280;3239;48.714;9.472;2023-04-30T06:16:47;98594.88;;;13.07;100.00
6413;BME280;3239;48.714;9.472;2023-04-30T06:19:13;98583.47;;;13.49;100.00
6413;BME280;3239;48.714;9.472;2023-04-30T06:21:39;98566.28;;;13.23;100.00
6413;BME280;3239;48.714;9.472;2023-04-30T06:24:05;98560.19;;;13.04;100.00
6413;BME280;3239;48.714;9.472;2023-04-30T06:26:32;98562.22;;;13.37;100.00
6413;BME280;3239;48.714;9.472;2023-04-30T06:28:57;98554.16;;;13.93;100.00
6413;BME280;3239;48.714;9.472;2023-04-30T06:31:23;98548.53;;;13.98;100.00
6413;BME280;3239;48.714;9.472;2023-04-30T06:33:49;98535.31;;;14.17;100.00
6413;BME280;3239;48.714;9.472;2023-04-30T06:36:15;98532.28;;;13.87;100.00
6413;BME280;3239;48.714;9.472;2023-04-30T06:38:41;98535.47;;;14.40;100.00
6413;BME280;3239;48.714;9.472;2023-04-30T06:41:07;98529.56;;;14.15;100.00
6413;BME280;3239;48.714;9.472;2023-04-30T06:43:33;98527.03;;;13.97;100.00
6413;BME280;3239;48.714;9.472;2023-04-30T06:45:59;98528.97;;;14.30;100.00
6413;BME280;3239;48.714;9.472;2023-04-30T06:48:25;98529.63;;;14.71;100.00
6413;BME280;3239;48.714;9.472;2023-04-30T06:50:51;98522.09;;;15.07;100.00
6413;BME280;3239;48.714;9.472;2023-04-30T06:53:17;98519.72;;;15.19;100.00
6413;BME280;3239;48.714;9.472;2023-04-30T06:55:44;98513.47;;;15.18;100.00
6413;BME280;3239;48.714;9.472;2023-04-30T06:58:11;98517.59;;;15.40;100.00
6413;BME280;3239;48.714;9.472;2023-04-30T07:00:37;98516.34;;;15.05;100.00
6413;BME280;3239;48.714;9.472;2023-04-30T07:03:03;98518.00;;;15.51;100.00
6413;BME280;3239;48.714;9.472;2023-04-30T07:05:32;98503.88;;;15.77;100.00
6413;BME280;3239;48.714;9.472;2023-04-30T07:08:00;98494.13;;;15.91;100.00
6413;BME280;3239;48.714;9.472;2023-04-30T07:10:26;98500.34;;;14.96;100.00
6413;BME280;3239;48.714;9.472;2023-04-30T07:12:52;98499.09;;;16.00;100.00
6413;BME280;3239;48.714;9.472;2023-04-30T07:15:18;98500.94;;;15.90;100.00
6413;BME280;3239;48.714;9.472;2023-04-30T07:17:44;98497.59;;;16.52;100.00
6413;BME280;3239;48.714;9.472;2023-04-30T07:20:11;98481.88;;;16.69;100.00
6413;BME280;3239;48.714;9.472;2023-04-30T07:22:39;98487.00;;;17.27;100.00
6413;BME280;3239;48.714;9.472;2023-04-30T07:25:06;98476.22;;;17.46;100.00
6413;BME280;3239;48.714;9.472;2023-04-30T07:27:31;98471.28;;;17.62;100.00
6413;BME280;3239;48.714;9.472;2023-04-30T07:29:57;98478.03;;;17.12;100.00
6413;BME280;3239;48.714;9.472;2023-04-30T07:32:23;98475.66;;;16.31;100.00
6413;BME280;3239;48.714;9.472;2023-04-30T07:34:52;98477.78;;;16.78;100.00
6413;BME280;3239;48.714;9.472;2023-04-30T07:37:18;98462.06;;;16.03;100.00
6413;BME280;3239;48.714;9.472;2023-04-30T07:39:44;98477.16;;;16.40;100.00
6413;BME280;3239;48.714;9.472;2023-04-30T07:42:09;98469.81;;;15.82;100.00
6413;BME280;3239;48.714;9.472;2023-04-30T07:44:35;98471.81;;;16.49;100.00
6413;BME280;3239;48.714;9.472;2023-04-30T07:47:01;98473.03;;;16.63;100.00
6413;BME280;3239;48.714;9.472;2023-04-30T07:49:28;98465.97;;;16.85;100.00
6413;BME280;3239;48.714;9.472;2023-04-30T07:51:54;98462.59;;;16.94;100.00
6413;BME280;3239;48.714;9.472;2023-04-30T07:54:20;98467.28;;;16.76;100.00
6413;BME280;3239;48.714;9.472;2023-04-30T07:56:46;98462.00;;;17.91;100.00
6413;BME280;3239;48.714;9.472;2023-04-30T07:59:13;98454.09;;;17.63;100.00
6413;BME280;3239;48.714;9.472;2023-04-30T08:01:39;98452.19;;;17.09;100.00
6413;BME280;3239;48.714;9.472;2023-04-30T08:04:05;98461.31;;;16.40;100.00
6413;BME280;3239;48.714;9.472;2023-04-30T08:06:32;98462.69;;;16.79;100.00
6413;BME280;3239;48.714;9.472;2023-04-30T08:08:57;98463.84;;;16.53;100.00
6413;BME280;3239;48.714;9.472;2023-04-30T08:11:23;98447.81;;;16.99;100.00
6413;BME280;3239;48.714;9.472;2023-04-30T08:13:49;98450.94;;;16.33;100.00
6413;BME280;3239;48.714;9.472;2023-04-30T08:16:15;98450.06;;;16.23;100.00
6413;BME280;3239;48.714;9.472;2023-04-30T08:18:41;98449.16;;;16.21;100.00
6413;BME280;3239;48.714;9.472;2023-04-30T08:21:12;98457.97;;;15.37;100.00
6413;BME280;3239;48.714;9.472;2023-04-30T08:23:38;98450.28;;;15.73;100.00
6413;BME280;3239;48.714;9.472;2023-04-30T08:26:04;98458.53;;;15.35;100.00
6413;BME280;3239;48.714;9.472;2023-04-30T08:28:29;98455.31;;;15.24;100.00
6413;BME280;3239;48.714;9.472;2023-04-30T08:30:55;98455.44;;;15.61;100.00
6413;BME280;3239;48.714;9.472;2023-04-30T08:33:21;98454.88;;;16.08;100.00
6413;BME280;3239;48.714;9.472;2023-04-30T08:35:47;98449.00;;;15.89;100.00
6413;BME280;3239;48.714;9.472;2023-04-30T08:38:12;98451.53;;;15.57;100.00
6413;BME280;3239;48.714;9.472;2023-04-30T08:40:39;98448.06;;;15.56;100.00
6413;BME280;3239;48.714;9.472;2023-04-30T08:43:07;98445.66;;;15.45;100.00
6413;BME280;3239;48.714;9.472;2023-04-30T08:45:35;98442.69;;;15.36;100.00
6413;BME280;3239;48.714;9.472;2023-04-30T08:48:05;98443.34;;;15.14;100.00
6413;BME280;3239;48.714;9.472;2023-04-30T08:50:35;98449.72;;;15.01;100.00
6413;BME280;3239;48.714;9.472;2023-04-30T08:53:00;98459.56;;;15.32;100.00
6413;BME280;3239;48.714;9.472;2023-04-30T08:55:27;98449.16;;;15.68;100.00
6413;BME280;3239;48.714;9.472;2023-04-30T08:57:53;98452.44;;;15.37;100.00
6413;BME280;3239;48.714;9.472;2023-04-30T09:00:19;98455.81;;;15.00;100.00
6413;BME280;3239;48.714;9.472;2023-04-30T09:02:46;98454.25;;;15.27;100.00
6413;BME280;3239;48.714;9.472;2023-04-30T09:05:14;98451.00;;;14.93;100.00
6413;BME280;3239;48.714;9.472;2023-04-30T09:07:42;98449.75;;;15.09;100.00
6413;BME280;3239;48.714;9.472;2023-04-30T09:10:20;98455.72;;;15.28;100.00
6413;BME280;3239;48.714;9.472;2023-04-30T09:13:07;98449.13;;;15.38;100.00
6413;BME280;3239;48.714;9.472;2023-04-30T09:15:36;98453.38;;;15.39;100.00
6413;BME280;3239;48.714;9.472;2023-04-30T09:18:18;98456.97;;;15.12;100.00
6413;BME280;3239;48.714;9.472;2023-04-30T09:20:58;98442.06;;;15.22;100.00
6413;BME280;3239;48.714;9.472;2023-04-30T09:23:25;98437.38;;;15.45;100.00
6413;BME280;3239;48.714;9.472;2023-04-30T09:25:51;98441.22;;;15.50;100.00
6413;BME280;3239;48.714;9.472;2023-04-30T09:28:18;98444.13;;;15.29;100.00
6413;BME280;3239;48.714;9.472;2023-04-30T09:30:48;98437.84;;;15.21;100.00
6413;BME280;3239;48.714;9.472;2023-04-30T09:33:14;98446.88;;;15.22;100.00
6413;BME280;3239;48.714;9.472;2023-04-30T09:35:40;98441.06;;;15.48;100.00
6413;BME280;3239;48.714;9.472;2023-04-30T09:38:29;98436.47;;;15.73;100.00
6413;BME280;3239;48.714;9.472;2023-04-30T09:40:57;98440.88;;;15.83;100.00
6413;BME280;3239;48.714;9.472;2023-04-30T09:43:25;98442.72;;;15.58;100.00
6413;BME280;3239;48.714;9.472;2023-04-30T09:45:51;98433.13;;;15.74;100.00
6413;BME280;3239;48.714;9.472;2023-04-30T09:48:25;98433.13;;;15.67;100.00
6413;BME280;3239;48.714;9.472;2023-04-30T09:50:54;98439.78;;;15.79;100.00
6413;BME280;3239;48.714;9.472;2023-04-30T09:53:20;98434.97;;;16.02;100.00
6413;BME280;3239;48.714;9.472;2023-04-30T09:55:50;98429.22;;;16.22;100.00
6413;BME280;3239;48.714;9.472;2023-04-30T09:58:18;98438.78;;;16.36;100.00
6413;BME280;3239;48.714;9.472;2023-04-30T10:00:47;98441.59;;;16.06;100.00
6413;BME280;3239;48.714;9.472;2023-04-30T10:03:14;98440.81;;;16.36;100.00
6413;BME280;3239;48.714;9.472;2023-04-30T10:05:43;98440.88;;;15.91;100.00
6413;BME280;3239;48.714;9.472;2023-04-30T10:08:27;98441.97;;;15.88;100.00
6413;BME280;3239;48.714;9.472;2023-04-30T10:11:03;98430.34;;;16.27;100.00
6413;BME280;3239;48.714;9.472;2023-04-30T10:18:51;98429.97;;;16.23;100.00
6413;BME280;3239;48.714;9.472;2023-04-30T10:21:22;98424.59;;;16.40;100.00
6413;BME280;3239;48.714;9.472;2023-04-30T10:23:49;98420.88;;;16.60;100.00
6413;BME280;3239;48.714;9.472;2023-04-30T10:26:16;98432.88;;;16.32;100.00
6413;BME280;3239;48.714;9.472;2023-04-30T10:28:43;98425.91;;;16.16;100.00
6413;BME280;3239;48.714;9.472;2023-04-30T10:31:11;98424.59;;;16.32;100.00
6413;BME280;3239;48.714;9.472;2023-04-30T10:33:50;98418.00;;;16.05;100.00
6413;BME280;3239;48.714;9.472;2023-04-30T10:36:42;98417.13;;;15.58;100.00
6413;BME280;3239;48.714;9.472;2023-04-30T10:39:11;98426.53;;;15.92;100.00
6413;BME280;3239;48.714;9.472;2023-04-30T10:41:37;98419.53;;;15.69;100.00
6413;BME280;3239;48.714;9.472;2023-04-30T10:44:03;98431.31;;;15.92;100.00
6413;BME280;3239;48.714;9.472;2023-04-30T10:46:34;98421.53;;;16.06;100.00
6413;BME280;3239;48.714;9.472;2023-04-30T10:49:00;98423.69;;;16.15;100.00
6413;BME280;3239;48.714;9.472;2023-04-30T10:51:48;98418.56;;;16.11;100.00
6413;BME280;3239;48.714;9.472;2023-04-30T10:54:15;98426.50;;;16.07;100.00
6413;BME280;3239;48.714;9.472;2023-04-30T10:56:44;98421.13;;;16.17;100.00
6413;BME280;3239;48.714;9.472;2023-04-30T10:59:11;98418.59;;;15.74;100.00
6413;BME280;3239;48.714;9.472;2023-04-30T11:01:58;98412.84;;;16.24;100.00
6413;BME280;3239;48.714;9.472;2023-04-30T11:04:25;98414.81;;;16.46;100.00
6413;BME280;3239;48.714;9.472;2023-04-30T11:07:00;98410.84;;;16.72;100.00
6413;BME280;3239;48.714;9.472;2023-04-30T11:09:42;98407.41;;;16.56;100.00
6413;BME280;3239;48.714;9.472;2023-04-30T11:12:18;98399.19;;;16.19;100.00
6413;BME280;3239;48.714;9.472;2023-04-30T11:14:46;98407.63;;;16.43;100.00
6413;BME280;3239;48.714;9.472;2023-04-30T11:17:22;98404.56;;;16.09;100.00
6413;BME280;3239;48.714;9.472;2023-04-30T11:19:50;98406.03;;;16.03;100.00
6413;BME280;3239;48.714;9.472;2023-04-30T11:22:22;98405.47;;;16.19;100.00
6413;BME280;3239;48.714;9.472;2023-04-30T11:25:08;98406.78;;;16.11;100.00
6413;BME280;3239;48.714;9.472;2023-04-30T11:27:36;98395.47;;;16.31;100.00
6413;BME280;3239;48.714;9.472;2023-04-30T11:32:36;98397.97;;;16.99;100.00
6413;BME280;3239;48.714;9.472;2023-04-30T11:35:04;98388.72;;;17.04;100.00
6413;BME280;3239;48.714;9.472;2023-04-30T11:37:37;98391.81;;;17.15;99.25
6413;BME280;3239;48.714;9.472;2023-04-30T11:40:07;98393.09;;;16.82;100.00
6413;BME280;3239;48.714;9.472;2023-04-30T11:42:37;98394.22;;;16.79;100.00
6413;BME280;3239;48.714;9.472;2023-04-30T11:45:08;98396.06;;;16.77;100.00
6413;BME280;3239;48.714;9.472;2023-04-30T11:48:00;98388.41;;;16.60;100.00
6413;BME280;3239;48.714;9.472;2023-04-30T11:50:32;98391.28;;;16.77;100.00
6413;BME280;3239;48.714;9.472;2023-04-30T11:52:59;98372.72;;;16.63;100.00
6413;BME280;3239;48.714;9.472;2023-04-30T11:55:28;98376.41;;;17.29;100.00
6413;BME280;3239;48.714;9.472;2023-04-30T11:57:56;98364.19;;;17.32;100.00
6413;BME280;3239;48.714;9.472;2023-04-30T12:00:30;98375.16;;;17.23;100.00
6413;BME280;3239;48.714;9.472;2023-04-30T12:02:58;98374.44;;;17.15;100.00
6413;BME280;3239;48.714;9.472;2023-04-30T12:05:26;98374.13;;;17.11;100.00
6413;BME280;3239;48.714;9.472;2023-04-30T12:08:04;98372.13;;;16.72;100.00
6413;BME280;3239;48.714;9.472;2023-04-30T12:10:34;98386.34;;;17.00;100.00
6413;BME280;3239;48.714;9.472;2023-04-30T12:13:01;98366.25;;;16.68;100.00
6413;BME280;3239;48.714;9.472;2023-04-30T12:15:27;98364.00;;;16.74;100.00
6413;BME280;3239;48.714;9.472;2023-04-30T12:17:58;98366.94;;;17.08;100.00
6413;BME280;3239;48.714;9.472;2023-04-30T12:20:30;98358.16;;;17.92;100.00
6413;BME280;3239;48.714;9.472;2023-04-30T12:22:57;98354.50;;;18.58;100.00
6413;BME280;3239;48.714;9.472;2023-04-30T12:25:23;98353.34;;;18.61;100.00
6413;BME280;3239;48.714;9.472;2023-04-30T12:27:53;98355.53;;;18.62;99.46
6413;BME280;3239;48.714;9.472;2023-04-30T12:30:23;98350.97;;;18.23;100.00
6413;BME280;3239;48.714;9.472;2023-04-30T12:32:52;98349.28;;;18.28;100.00
6413;BME280;3239;48.714;9.472;2023-04-30T12:35:21;98349.03;;;18.33;100.00
6413;BME280;3239;48.714;9.472;2023-04-30T12:37:53;98350.34;;;17.98;98.34
6413;BME280;3239;48.714;9.472;2023-04-30T12:40:25;98347.38;;;17.79;99.13
6413;BME280;3239;48.714;9.472;2023-04-30T12:43:04;98349.59;;;17.81;100.00
6413;BME280;3239;48.714;9.472;2023-04-30T12:46:04;98343.34;;;17.97;93.09
6413;BME280;3239;48.714;9.472;2023-04-30T12:48:43;98348.63;;;18.20;98.56
6413;BME280;3239;48.714;9.472;2023-04-30T12:51:10;98351.13;;;17.74;100.00
6413;BME280;3239;48.714;9.472;2023-04-30T12:53:45;98345.44;;;17.89;99.58
6413;BME280;3239;48.714;9.472;2023-04-30T12:56:14;98337.59;;;17.78;99.44
6413;BME280;3239;48.714;9.472;2023-04-30T12:58:46;98337.69;;;17.88;99.22
6413;BME280;3239;48.714;9.472;2023-04-30T13:01:18;98333.28;;;18.02;100.00
6413;BME280;3239;48.714;9.472;2023-04-30T13:03:45;98327.75;;;18.36;95.36
6413;BME280;3239;48.714;9.472;2023-04-30T13:06:14;98319.34;;;18.09;87.72
6413;BME280;3239;48.714;9.472;2023-04-30T13:08:44;98318.09;;;18.20;90.15
6413;BME280;3239;48.714;9.472;2023-04-30T13:11:09;98329.34;;;18.56;100.00
6413;BME280;3239;48.714;9.472;2023-04-30T13:13:35;98312.91;;;18.67;91.89
6413;BME280;3239;48.714;9.472;2023-04-30T13:16:01;98321.81;;;18.66;86.21
6413;BME280;3239;48.714;9.472;2023-04-30T13:18:27;98308.47;;;18.55;85.84
6413;BME280;3239;48.714;9.472;2023-04-30T13:20:53;98315.19;;;18.78;89.71
6413;BME280;3239;48.714;9.472;2023-04-30T13:23:19;98305.09;;;19.45;81.24
6413;BME280;3239;48.714;9.472;2023-04-30T13:25:44;98299.28;;;18.35;84.99
6413;BME280;3239;48.714;9.472;2023-04-30T13:28:11;98304.88;;;18.45;79.03
6413;BME280;3239;48.714;9.472;2023-04-30T13:30:36;98299.47;;;18.64;75.10
6413;BME280;3239;48.714;9.472;2023-04-30T13:33:03;98296.34;;;19.13;79.84
6413;BME280;3239;48.714;9.472;2023-04-30T13:35:29;98297.00;;;18.24;82.74